sensor_id;sensor_type;location;lat;lon;timestamp;P1;durP1;ratioP1;P2;durP2;ratioP2
27489;SDS011;14925;51.026;13.752;2022-10-16T00:00:33;32.72;;;22.88;;
27489;SDS011;14925;51.026;13.752;2022-10-16T00:02:59;32.50;;;23.98;;
27489;SDS011;14925;51.026;13.752;2022-10-16T00:05:24;40.85;;;26.98;;
27489;SDS011;14925;51.026;13.752;2022-10-16T00:07:50;33.80;;;23.17;;
27489;SDS011;14925;51.026;13.752;2022-10-16T00:10:15;35.30;;;23.40;;
27489;SDS011;14925;51.026;13.752;2022-10-16T00:12:40;35.78;;;24.38;;
27489;SDS011;14925;51.026;13.752;2022-10-16T00:15:06;32.90;;;24.40;;
27489;SDS011;14925;51.026;13.752;2022-10-16T00:17:32;33.85;;;23.55;;
27489;SDS011;14925;51.026;13.752;2022-10-16T00:19:57;34.20;;;24.70;;
27489;SDS011;14925;51.026;13.752;2022-10-16T00:22:23;36.15;;;25.25;;
27489;SDS011;14925;51.026;13.752;2022-10-16T00:24:48;32.38;;;23.45;;
27489;SDS011;14925;51.026;13.752;2022-10-16T00:27:14;40.53;;;26.30;;
27489;SDS011;14925;51.026;13.752;2022-10-16T00:29:39;38.75;;;26.10;;
27489;SDS011;14925;51.026;13.752;2022-10-16T00:32:04;37.70;;;26.23;;
27489;SDS011;14925;51.026;13.752;2022-10-16T00:34:30;35.35;;;24.45;;
27489;SDS011;14925;51.026;13.752;2022-10-16T00:36:55;38.92;;;24.88;;
27489;SDS011;14925;51.026;13.752;2022-10-16T00:39:22;36.90;;;25.27;;
27489;SDS011;14925;51.026;13.752;2022-10-16T00:41:47;37.38;;;26.00;;
27489;SDS011;14925;51.026;13.752;2022-10-16T00:47:08;38.40;;;25.23;;
27489;SDS011;14925;51.026;13.752;2022-10-16T00:49:34;33.47;;;22.95;;
27489;SDS011;14925;51.026;13.752;2022-10-16T00:52:00;35.03;;;23.98;;
27489;SDS011;14925;51.026;13.752;2022-10-16T00:54:26;32.30;;;21.83;;
27489;SDS011;14925;51.026;13.752;2022-10-16T00:56:53;29.13;;;20.65;;
27489;SDS011;14925;51.026;13.752;2022-10-16T00:59:24;28.67;;;20.30;;
27489;SDS011;14925;51.026;13.752;2022-10-16T01:01:51;32.25;;;23.05;;
27489;SDS011;14925;51.026;13.752;2022-10-16T01:04:17;28.98;;;20.95;;
27489;SDS011;14925;51.026;13.752;2022-10-16T01:06:47;28.27;;;21.02;;
27489;SDS011;14925;51.026;13.752;2022-10-16T01:11:48;28.20;;;20.30;;
27489;SDS011;14925;51.026;13.752;2022-10-16T01:16:54;31.67;;;21.73;;
27489;SDS011;14925;51.026;13.752;2022-10-16T01:19:38;34.70;;;23.30;;
27489;SDS011;14925;51.026;13.752;2022-10-16T01:22:15;30.38;;;22.30;;
27489;SDS011;14925;51.026;13.752;2022-10-16T01:24:44;33.45;;;22.27;;
27489;SDS011;14925;51.026;13.752;2022-10-16T01:27:12;31.95;;;19.75;;
27489;SDS011;14925;51.026;13.752;2022-10-16T01:32:20;38.10;;;24.50;;
27489;SDS011;14925;51.026;13.752;2022-10-16T01:34:59;32.55;;;23.35;;
27489;SDS011;14925;51.026;13.752;2022-10-16T01:40:14;31.98;;;22.17;;
27489;SDS011;14925;51.026;13.752;2022-10-16T01:42:42;29.52;;;21.10;;
27489;SDS011;14925;51.026;13.752;2022-10-16T01:45:11;33.97;;;23.25;;
27489;SDS011;14925;51.026;13.752;2022-10-16T01:47:38;26.92;;;20.02;;
27489;SDS011;14925;51.026;13.752;2022-10-16T01:50:04;27.02;;;20.95;;
27489;SDS011;14925;51.026;13.752;2022-10-16T01:52:37;28.80;;;19.88;;
27489;SDS011;14925;51.026;13.752;2022-10-16T01:55:05;30.33;;;21.38;;
27489;SDS011;14925;51.026;13.752;2022-10-16T01:57:32;32.50;;;21.27;;
27489;SDS011;14925;51.026;13.752;2022-10-16T02:00:00;26.85;;;19.40;;
27489;SDS011;14925;51.026;13.752;2022-10-16T02:02:26;27.52;;;20.50;;
27489;SDS011;14925;51.026;13.752;2022-10-16T02:04:55;25.48;;;18.98;;
27489;SDS011;14925;51.026;13.752;2022-10-16T02:07:41;26.08;;;19.75;;
27489;SDS011;14925;51.026;13.752;2022-10-16T02:10:07;24.50;;;19.67;;
27489;SDS011;14925;51.026;13.752;2022-10-16T02:12:33;27.25;;;21.10;;
27489;SDS011;14925;51.026;13.752;2022-10-16T02:15:02;26.48;;;21.23;;
27489;SDS011;14925;51.026;13.752;2022-10-16T02:17:27;26.05;;;20.83;;
27489;SDS011;14925;51.026;13.752;2022-10-16T02:19:53;27.05;;;20.52;;
27489;SDS011;14925;51.026;13.752;2022-10-16T02:25:10;26.25;;;21.15;;
27489;SDS011;14925;51.026;13.752;2022-10-16T02:30:30;25.58;;;21.65;;
27489;SDS011;14925;51.026;13.752;2022-10-16T02:32:58;28.70;;;22.63;;
27489;SDS011;14925;51.026;13.752;2022-10-16T02:35:25;27.27;;;22.23;;
27489;SDS011;14925;51.026;13.752;2022-10-16T02:37:52;24.20;;;20.13;;
27489;SDS011;14925;51.026;13.752;2022-10-16T02:40:17;28.88;;;22.80;;
27489;SDS011;14925;51.026;13.752;2022-10-16T02:42:43;25.83;;;21.30;;
27489;SDS011;14925;51.026;13.752;2022-10-16T02:45:09;27.55;;;21.63;;
27489;SDS011;14925;51.026;13.752;2022-10-16T02:47:35;25.50;;;20.88;;
27489;SDS011;14925;51.026;13.752;2022-10-16T02:50:00;21.85;;;19.40;;
27489;SDS011;14925;51.026;13.752;2022-10-16T02:52:26;26.60;;;21.63;;
27489;SDS011;14925;51.026;13.752;2022-10-16T02:54:51;27.17;;;21.20;;
27489;SDS011;14925;51.026;13.752;2022-10-16T02:57:16;25.60;;;20.40;;
27489;SDS011;14925;51.026;13.752;2022-10-16T02:59:43;22.98;;;18.98;;
27489;SDS011;14925;51.026;13.752;2022-10-16T03:02:08;24.23;;;20.15;;
27489;SDS011;14925;51.026;13.752;2022-10-16T03:04:34;24.20;;;20.17;;
27489;SDS011;14925;51.026;13.752;2022-10-16T03:06:59;25.58;;;20.45;;
27489;SDS011;14925;51.026;13.752;2022-10-16T03:09:24;26.40;;;21.38;;
27489;SDS011;14925;51.026;13.752;2022-10-16T03:11:50;26.88;;;19.65;;
27489;SDS011;14925;51.026;13.752;2022-10-16T03:14:15;25.90;;;21.48;;
27489;SDS011;14925;51.026;13.752;2022-10-16T03:16:41;25.95;;;20.73;;
27489;SDS011;14925;51.026;13.752;2022-10-16T03:19:06;27.58;;;21.58;;
27489;SDS011;14925;51.026;13.752;2022-10-16T03:21:31;26.10;;;21.38;;
27489;SDS011;14925;51.026;13.752;2022-10-16T03:23:57;30.75;;;22.33;;
27489;SDS011;14925;51.026;13.752;2022-10-16T03:26:22;25.70;;;20.35;;
27489;SDS011;14925;51.026;13.752;2022-10-16T03:28:47;22.38;;;18.42;;
27489;SDS011;14925;51.026;13.752;2022-10-16T03:31:13;24.85;;;20.65;;
27489;SDS011;14925;51.026;13.752;2022-10-16T03:33:38;23.52;;;18.63;;
27489;SDS011;14925;51.026;13.752;2022-10-16T03:36:03;25.20;;;19.85;;
27489;SDS011;14925;51.026;13.752;2022-10-16T03:38:32;22.73;;;18.77;;
27489;SDS011;14925;51.026;13.752;2022-10-16T03:40:57;26.33;;;19.88;;
27489;SDS011;14925;51.026;13.752;2022-10-16T03:43:22;25.27;;;19.95;;
27489;SDS011;14925;51.026;13.752;2022-10-16T03:45:49;30.75;;;21.48;;
27489;SDS011;14925;51.026;13.752;2022-10-16T03:48:16;23.35;;;19.02;;
27489;SDS011;14925;51.026;13.752;2022-10-16T03:50:41;27.90;;;19.48;;
27489;SDS011;14925;51.026;13.752;2022-10-16T03:53:09;24.20;;;19.65;;
27489;SDS011;14925;51.026;13.752;2022-10-16T03:55:35;25.98;;;21.73;;
27489;SDS011;14925;51.026;13.752;2022-10-16T03:58:00;28.17;;;21.83;;
27489;SDS011;14925;51.026;13.752;2022-10-16T04:00:26;25.52;;;20.75;;
27489;SDS011;14925;51.026;13.752;2022-10-16T04:02:51;23.38;;;20.33;;
27489;SDS011;14925;51.026;13.752;2022-10-16T04:05:17;27.75;;;21.95;;
27489;SDS011;14925;51.026;13.752;2022-10-16T04:07:42;26.25;;;20.88;;
27489;SDS011;14925;51.026;13.752;2022-10-16T04:10:07;25.50;;;20.75;;
27489;SDS011;14925;51.026;13.752;2022-10-16T04:12:33;25.42;;;20.65;;
27489;SDS011;14925;51.026;13.752;2022-10-16T04:14:58;27.58;;;21.20;;
27489;SDS011;14925;51.026;13.752;2022-10-16T04:17:24;25.65;;;20.70;;
27489;SDS011;14925;51.026;13.752;2022-10-16T04:19:49;25.63;;;21.38;;
27489;SDS011;14925;51.026;13.752;2022-10-16T04:22:14;27.80;;;22.40;;
27489;SDS011;14925;51.026;13.752;2022-10-16T04:24:43;29.45;;;22.65;;
27489;SDS011;14925;51.026;13.752;2022-10-16T04:27:08;27.05;;;20.58;;
27489;SDS011;14925;51.026;13.752;2022-10-16T04:29:34;27.92;;;22.13;;
27489;SDS011;14925;51.026;13.752;2022-10-16T04:31:59;29.95;;;22.60;;
27489;SDS011;14925;51.026;13.752;2022-10-16T04:34:24;27.13;;;22.08;;
27489;SDS011;14925;51.026;13.752;2022-10-16T04:36:50;28.73;;;24.17;;
27489;SDS011;14925;51.026;13.752;2022-10-16T04:39:15;27.33;;;21.83;;
27489;SDS011;14925;51.026;13.752;2022-10-16T04:41:41;26.65;;;21.27;;
27489;SDS011;14925;51.026;13.752;2022-10-16T04:44:06;28.83;;;22.63;;
27489;SDS011;14925;51.026;13.752;2022-10-16T04:46:32;25.65;;;21.38;;
27489;SDS011;14925;51.026;13.752;2022-10-16T04:48:57;30.38;;;24.73;;
27489;SDS011;14925;51.026;13.752;2022-10-16T04:51:23;28.65;;;24.00;;
27489;SDS011;14925;51.026;13.752;2022-10-16T04:53:48;28.42;;;23.13;;
27489;SDS011;14925;51.026;13.752;2022-10-16T04:56:13;26.98;;;21.80;;
27489;SDS011;14925;51.026;13.752;2022-10-16T04:58:40;24.02;;;21.42;;
27489;SDS011;14925;51.026;13.752;2022-10-16T05:01:05;25.08;;;19.88;;
27489;SDS011;14925;51.026;13.752;2022-10-16T05:03:31;26.63;;;22.20;;
27489;SDS011;14925;51.026;13.752;2022-10-16T05:05:56;25.73;;;21.35;;
27489;SDS011;14925;51.026;13.752;2022-10-16T05:08:21;27.17;;;22.38;;
27489;SDS011;14925;51.026;13.752;2022-10-16T05:10:47;27.60;;;22.67;;
27489;SDS011;14925;51.026;13.752;2022-10-16T05:13:12;24.10;;;21.23;;
27489;SDS011;14925;51.026;13.752;2022-10-16T05:15:37;24.58;;;21.85;;
27489;SDS011;14925;51.026;13.752;2022-10-16T05:18:03;26.70;;;23.05;;
27489;SDS011;14925;51.026;13.752;2022-10-16T05:20:28;25.92;;;20.55;;
27489;SDS011;14925;51.026;13.752;2022-10-16T05:22:54;23.60;;;19.10;;
27489;SDS011;14925;51.026;13.752;2022-10-16T05:25:19;21.88;;;19.50;;
27489;SDS011;14925;51.026;13.752;2022-10-16T05:27:48;26.30;;;21.75;;
27489;SDS011;14925;51.026;13.752;2022-10-16T05:30:13;26.08;;;22.02;;
27489;SDS011;14925;51.026;13.752;2022-10-16T05:32:39;26.48;;;21.15;;
27489;SDS011;14925;51.026;13.752;2022-10-16T05:35:05;27.48;;;21.15;;
27489;SDS011;14925;51.026;13.752;2022-10-16T05:37:30;23.15;;;19.95;;
27489;SDS011;14925;51.026;13.752;2022-10-16T05:39:56;22.60;;;19.08;;
27489;SDS011;14925;51.026;13.752;2022-10-16T05:42:21;22.70;;;20.17;;
27489;SDS011;14925;51.026;13.752;2022-10-16T05:44:46;23.38;;;20.80;;
27489;SDS011;14925;51.026;13.752;2022-10-16T05:47:12;22.33;;;19.38;;
27489;SDS011;14925;51.026;13.752;2022-10-16T05:49:39;22.30;;;19.20;;
27489;SDS011;14925;51.026;13.752;2022-10-16T05:52:04;24.73;;;20.55;;
27489;SDS011;14925;51.026;13.752;2022-10-16T05:54:29;26.10;;;20.60;;
27489;SDS011;14925;51.026;13.752;2022-10-16T05:56:55;27.58;;;20.48;;
27489;SDS011;14925;51.026;13.752;2022-10-16T05:59:20;23.55;;;20.27;;
27489;SDS011;14925;51.026;13.752;2022-10-16T06:01:48;23.30;;;20.77;;
27489;SDS011;14925;51.026;13.752;2022-10-16T06:04:14;22.85;;;18.27;;
27489;SDS011;14925;51.026;13.752;2022-10-16T06:06:39;23.67;;;20.35;;
27489;SDS011;14925;51.026;13.752;2022-10-16T06:09:04;23.73;;;19.05;;
27489;SDS011;14925;51.026;13.752;2022-10-16T06:11:30;22.25;;;19.05;;
27489;SDS011;14925;51.026;13.752;2022-10-16T06:13:58;20.75;;;17.38;;
27489;SDS011;14925;51.026;13.752;2022-10-16T06:16:26;22.52;;;19.02;;
27489;SDS011;14925;51.026;13.752;2022-10-16T06:18:52;19.55;;;16.58;;
27489;SDS011;14925;51.026;13.752;2022-10-16T06:21:20;20.23;;;16.77;;
27489;SDS011;14925;51.026;13.752;2022-10-16T06:23:46;19.08;;;16.88;;
27489;SDS011;14925;51.026;13.752;2022-10-16T06:26:12;19.30;;;15.15;;
27489;SDS011;14925;51.026;13.752;2022-10-16T06:28:42;18.23;;;14.65;;
27489;SDS011;14925;51.026;13.752;2022-10-16T06:31:08;18.77;;;15.10;;
27489;SDS011;14925;51.026;13.752;2022-10-16T06:33:35;18.00;;;15.07;;
27489;SDS011;14925;51.026;13.752;2022-10-16T06:36:05;18.88;;;16.38;;
27489;SDS011;14925;51.026;13.752;2022-10-16T06:38:33;18.90;;;16.27;;
27489;SDS011;14925;51.026;13.752;2022-10-16T06:40:58;21.05;;;16.33;;
27489;SDS011;14925;51.026;13.752;2022-10-16T06:43:24;18.52;;;15.75;;
27489;SDS011;14925;51.026;13.752;2022-10-16T06:45:53;18.63;;;16.48;;
27489;SDS011;14925;51.026;13.752;2022-10-16T06:48:19;20.98;;;17.35;;
27489;SDS011;14925;51.026;13.752;2022-10-16T06:50:54;19.13;;;16.75;;
27489;SDS011;14925;51.026;13.752;2022-10-16T06:53:20;21.67;;;17.70;;
27489;SDS011;14925;51.026;13.752;2022-10-16T06:55:49;20.42;;;18.25;;
27489;SDS011;14925;51.026;13.752;2022-10-16T06:58:14;19.30;;;17.30;;
27489;SDS011;14925;51.026;13.752;2022-10-16T07:00:39;21.80;;;17.02;;
27489;SDS011;14925;51.026;13.752;2022-10-16T07:03:05;19.75;;;17.65;;
27489;SDS011;14925;51.026;13.752;2022-10-16T07:05:30;21.02;;;18.73;;
27489;SDS011;14925;51.026;13.752;2022-10-16T07:07:55;20.88;;;18.67;;
27489;SDS011;14925;51.026;13.752;2022-10-16T07:10:21;20.77;;;17.98;;
27489;SDS011;14925;51.026;13.752;2022-10-16T07:12:49;20.48;;;18.35;;
27489;SDS011;14925;51.026;13.752;2022-10-16T07:15:14;19.40;;;17.30;;
27489;SDS011;14925;51.026;13.752;2022-10-16T07:17:39;20.75;;;18.15;;
27489;SDS011;14925;51.026;13.752;2022-10-16T07:20:05;20.98;;;18.73;;
27489;SDS011;14925;51.026;13.752;2022-10-16T07:22:31;22.38;;;19.45;;
27489;SDS011;14925;51.026;13.752;2022-10-16T07:24:56;23.33;;;19.15;;
27489;SDS011;14925;51.026;13.752;2022-10-16T07:27:21;23.15;;;17.73;;
27489;SDS011;14925;51.026;13.752;2022-10-16T07:29:48;20.85;;;17.17;;
27489;SDS011;14925;51.026;13.752;2022-10-16T07:32:14;23.25;;;19.08;;
27489;SDS011;14925;51.026;13.752;2022-10-16T07:34:39;23.92;;;19.25;;
27489;SDS011;14925;51.026;13.752;2022-10-16T07:37:05;22.08;;;19.73;;
27489;SDS011;14925;51.026;13.752;2022-10-16T07:39:30;24.48;;;20.05;;
27489;SDS011;14925;51.026;13.752;2022-10-16T07:41:55;23.52;;;20.05;;
27489;SDS011;14925;51.026;13.752;2022-10-16T07:44:21;22.25;;;19.58;;
27489;SDS011;14925;51.026;13.752;2022-10-16T07:46:46;22.42;;;19.75;;
27489;SDS011;14925;51.026;13.752;2022-10-16T07:49:11;20.98;;;18.85;;
27489;SDS011;14925;51.026;13.752;2022-10-16T07:51:37;23.83;;;19.58;;
27489;SDS011;14925;51.026;13.752;2022-10-16T07:54:03;24.50;;;20.65;;
27489;SDS011;14925;51.026;13.752;2022-10-16T07:56:30;20.48;;;18.33;;
27489;SDS011;14925;51.026;13.752;2022-10-16T07:58:55;21.48;;;19.27;;
27489;SDS011;14925;51.026;13.752;2022-10-16T08:01:21;22.60;;;20.27;;
27489;SDS011;14925;51.026;13.752;2022-10-16T08:03:50;22.85;;;20.45;;
27489;SDS011;14925;51.026;13.752;2022-10-16T08:06:16;25.70;;;20.98;;
27489;SDS011;14925;51.026;13.752;2022-10-16T08:08:42;21.67;;;19.38;;
27489;SDS011;14925;51.026;13.752;2022-10-16T08:11:08;21.85;;;19.65;;
27489;SDS011;14925;51.026;13.752;2022-10-16T08:13:33;21.13;;;18.50;;
27489;SDS011;14925;51.026;13.752;2022-10-16T08:15:59;21.85;;;18.67;;
27489;SDS011;14925;51.026;13.752;2022-10-16T08:18:25;21.33;;;19.17;;
27489;SDS011;14925;51.026;13.752;2022-10-16T08:20:57;21.48;;;19.23;;
27489;SDS011;14925;51.026;13.752;2022-10-16T08:23:23;20.48;;;17.60;;
27489;SDS011;14925;51.026;13.752;2022-10-16T08:25:52;20.92;;;18.70;;
27489;SDS011;14925;51.026;13.752;2022-10-16T08:28:19;21.02;;;18.88;;
27489;SDS011;14925;51.026;13.752;2022-10-16T08:30:45;19.42;;;17.40;;
27489;SDS011;14925;51.026;13.752;2022-10-16T08:33:10;19.98;;;17.60;;
27489;SDS011;14925;51.026;13.752;2022-10-16T08:35:36;21.50;;;18.02;;
27489;SDS011;14925;51.026;13.752;2022-10-16T08:38:05;20.58;;;17.08;;
27489;SDS011;14925;51.026;13.752;2022-10-16T08:40:31;18.85;;;16.95;;
27489;SDS011;14925;51.026;13.752;2022-10-16T08:48:43;17.58;;;15.82;;
27489;SDS011;14925;51.026;13.752;2022-10-16T08:51:12;16.70;;;14.93;;
27489;SDS011;14925;51.026;13.752;2022-10-16T08:53:50;18.50;;;15.63;;
27489;SDS011;14925;51.026;13.752;2022-10-16T08:56:19;16.15;;;14.45;;
27489;SDS011;14925;51.026;13.752;2022-10-16T08:58:45;16.23;;;14.63;;
27489;SDS011;14925;51.026;13.752;2022-10-16T09:01:12;15.18;;;13.52;;
27489;SDS011;14925;51.026;13.752;2022-10-16T09:06:31;15.27;;;13.45;;
27489;SDS011;14925;51.026;13.752;2022-10-16T09:12:17;15.13;;;12.80;;
27489;SDS011;14925;51.026;13.752;2022-10-16T09:22:38;15.07;;;13.48;;
27489;SDS011;14925;51.026;13.752;2022-10-16T09:25:11;16.05;;;14.35;;
27489;SDS011;14925;51.026;13.752;2022-10-16T09:27:39;13.68;;;12.30;;
27489;SDS011;14925;51.026;13.752;2022-10-16T09:30:14;14.23;;;12.80;;
27489;SDS011;14925;51.026;13.752;2022-10-16T09:32:44;16.73;;;13.45;;
27489;SDS011;14925;51.026;13.752;2022-10-16T09:35:15;14.32;;;12.82;;
27489;SDS011;14925;51.026;13.752;2022-10-16T09:37:43;13.95;;;12.45;;
27489;SDS011;14925;51.026;13.752;2022-10-16T09:43:10;13.70;;;10.48;;
27489;SDS011;14925;51.026;13.752;2022-10-16T09:45:56;11.43;;;10.38;;
27489;SDS011;14925;51.026;13.752;2022-10-16T09:48:23;11.98;;;9.70;;
27489;SDS011;14925;51.026;13.752;2022-10-16T09:50:55;11.75;;;10.48;;
27489;SDS011;14925;51.026;13.752;2022-10-16T09:53:25;11.57;;;9.80;;
27489;SDS011;14925;51.026;13.752;2022-10-16T09:55:53;13.43;;;10.43;;
27489;SDS011;14925;51.026;13.752;2022-10-16T09:58:21;10.95;;;9.85;;
27489;SDS011;14925;51.026;13.752;2022-10-16T10:00:52;11.10;;;10.10;;
27489;SDS011;14925;51.026;13.752;2022-10-16T10:03:40;13.23;;;10.02;;
27489;SDS011;14925;51.026;13.752;2022-10-16T10:06:26;10.55;;;9.55;;
27489;SDS011;14925;51.026;13.752;2022-10-16T10:08:55;11.45;;;8.77;;
27489;SDS011;14925;51.026;13.752;2022-10-16T10:11:40;10.52;;;9.43;;
27489;SDS011;14925;51.026;13.752;2022-10-16T10:16:45;7.68;;;7.03;;
27489;SDS011;14925;51.026;13.752;2022-10-16T10:19:15;8.70;;;7.85;;
27489;SDS011;14925;51.026;13.752;2022-10-16T10:21:42;8.38;;;7.47;;
27489;SDS011;14925;51.026;13.752;2022-10-16T10:24:11;6.25;;;5.68;;
27489;SDS011;14925;51.026;13.752;2022-10-16T10:26:38;6.70;;;6.10;;
27489;SDS011;14925;51.026;13.752;2022-10-16T10:29:16;1.45;;;1.35;;
27489;SDS011;14925;51.026;13.752;2022-10-16T10:34:43;2.30;;;1.20;;
27489;SDS011;14925;51.026;13.752;2022-10-16T10:40:03;1.00;;;0.80;;
27489;SDS011;14925;51.026;13.752;2022-10-16T10:45:16;2.88;;;0.60;;
27489;SDS011;14925;51.026;13.752;2022-10-16T10:51:42;0.52;;;0.45;;
27489;SDS011;14925;51.026;13.752;2022-10-16T10:54:02;2.17;;;0.50;;
27489;SDS011;14925;51.026;13.752;2022-10-16T10:57:12;0.43;;;0.43;;
27489;SDS011;14925;51.026;13.752;2022-10-16T11:05:04;0.90;;;0.60;;
27489;SDS011;14925;51.026;13.752;2022-10-16T11:07:40;0.50;;;0.50;;
27489;SDS011;14925;51.026;13.752;2022-10-16T11:10:15;2.40;;;0.50;;
27489;SDS011;14925;51.026;13.752;2022-10-16T11:12:45;1.08;;;0.50;;
27489;SDS011;14925;51.026;13.752;2022-10-16T11:15:18;0.85;;;0.40;;
27489;SDS011;14925;51.026;13.752;2022-10-16T11:18:02;0.55;;;0.55;;
27489;SDS011;14925;51.026;13.752;2022-10-16T11:20:34;2.28;;;0.50;;
27489;SDS011;14925;51.026;13.752;2022-10-16T11:23:11;0.50;;;0.47;;
27489;SDS011;14925;51.026;13.752;2022-10-16T11:25:41;1.48;;;0.40;;
27489;SDS011;14925;51.026;13.752;2022-10-16T11:28:11;2.30;;;0.50;;
27489;SDS011;14925;51.026;13.752;2022-10-16T11:30:50;0.45;;;0.40;;
27489;SDS011;14925;51.026;13.752;2022-10-16T11:33:23;1.50;;;0.50;;
27489;SDS011;14925;51.026;13.752;2022-10-16T11:50:02;0.40;;;0.40;;
27489;SDS011;14925;51.026;13.752;2022-10-16T11:55:43;3.47;;;0.38;;
27489;SDS011;14925;51.026;13.752;2022-10-16T11:58:19;0.45;;;0.40;;
27489;SDS011;14925;51.026;13.752;2022-10-16T12:01:05;0.82;;;0.38;;
27489;SDS011;14925;51.026;13.752;2022-10-16T12:04:02;1.35;;;0.43;;
27489;SDS011;14925;51.026;13.752;2022-10-16T12:06:46;1.48;;;0.50;;
27489;SDS011;14925;51.026;13.752;2022-10-16T12:11:48;1.02;;;0.43;;
27489;SDS011;14925;51.026;13.752;2022-10-16T12:14:21;1.52;;;0.50;;
27489;SDS011;14925;51.026;13.752;2022-10-16T12:17:22;3.85;;;0.70;;
27489;SDS011;14925;51.026;13.752;2022-10-16T12:20:01;1.13;;;0.50;;
27489;SDS011;14925;51.026;13.752;2022-10-16T12:22:36;2.17;;;0.50;;
27489;SDS011;14925;51.026;13.752;2022-10-16T12:25:01;0.60;;;0.40;;
27489;SDS011;14925;51.026;13.752;2022-10-16T12:27:28;1.95;;;0.40;;
27489;SDS011;14925;51.026;13.752;2022-10-16T12:30:02;0.85;;;0.50;;
27489;SDS011;14925;51.026;13.752;2022-10-16T12:32:37;3.65;;;0.45;;
27489;SDS011;14925;51.026;13.752;2022-10-16T12:35:16;3.17;;;0.60;;
27489;SDS011;14925;51.026;13.752;2022-10-16T12:37:46;0.40;;;0.40;;
27489;SDS011;14925;51.026;13.752;2022-10-16T12:40:26;3.13;;;0.47;;
27489;SDS011;14925;51.026;13.752;2022-10-16T12:42:53;1.50;;;0.50;;
27489;SDS011;14925;51.026;13.752;2022-10-16T12:45:32;0.70;;;0.60;;
27489;SDS011;14925;51.026;13.752;2022-10-16T12:47:59;2.28;;;0.50;;
27489;SDS011;14925;51.026;13.752;2022-10-16T12:52:56;1.27;;;0.50;;
27489;SDS011;14925;51.026;13.752;2022-10-16T12:55:22;0.57;;;0.40;;
27489;SDS011;14925;51.026;13.752;2022-10-16T13:00:55;1.05;;;0.32;;
27489;SDS011;14925;51.026;13.752;2022-10-16T13:06:19;0.93;;;0.50;;
27489;SDS011;14925;51.026;13.752;2022-10-16T13:08:56;2.08;;;0.45;;
27489;SDS011;14925;51.026;13.752;2022-10-16T13:17:12;2.00;;;0.70;;
27489;SDS011;14925;51.026;13.752;2022-10-16T13:23:02;2.58;;;0.60;;
27489;SDS011;14925;51.026;13.752;2022-10-16T13:26:00;0.83;;;0.60;;
27489;SDS011;14925;51.026;13.752;2022-10-16T13:28:40;1.33;;;0.60;;
27489;SDS011;14925;51.026;13.752;2022-10-16T13:31:10;1.33;;;0.57;;
27489;SDS011;14925;51.026;13.752;2022-10-16T13:33:52;1.23;;;0.50;;
27489;SDS011;14925;51.026;13.752;2022-10-16T13:36:21;2.42;;;0.60;;
27489;SDS011;14925;51.026;13.752;2022-10-16T13:38:47;0.80;;;0.50;;
27489;SDS011;14925;51.026;13.752;2022-10-16T13:41:14;1.15;;;0.50;;
27489;SDS011;14925;51.026;13.752;2022-10-16T13:43:45;3.17;;;0.50;;
27489;SDS011;14925;51.026;13.752;2022-10-16T13:46:15;2.20;;;0.50;;
27489;SDS011;14925;51.026;13.752;2022-10-16T13:48:43;0.70;;;0.63;;
27489;SDS011;14925;51.026;13.752;2022-10-16T13:51:13;0.80;;;0.60;;
27489;SDS011;14925;51.026;13.752;2022-10-16T13:53:40;0.60;;;0.60;;
27489;SDS011;14925;51.026;13.752;2022-10-16T13:56:07;2.08;;;0.80;;
27489;SDS011;14925;51.026;13.752;2022-10-16T13:58:36;3.30;;;0.65;;
27489;SDS011;14925;51.026;13.752;2022-10-16T14:01:02;2.30;;;0.75;;
27489;SDS011;14925;51.026;13.752;2022-10-16T14:03:37;1.65;;;0.60;;
27489;SDS011;14925;51.026;13.752;2022-10-16T14:06:03;3.45;;;0.80;;
27489;SDS011;14925;51.026;13.752;2022-10-16T14:08:29;1.25;;;0.90;;
27489;SDS011;14925;51.026;13.752;2022-10-16T14:10:56;0.85;;;0.80;;
27489;SDS011;14925;51.026;13.752;2022-10-16T14:13:39;1.50;;;0.80;;
27489;SDS011;14925;51.026;13.752;2022-10-16T14:16:15;1.63;;;0.68;;
27489;SDS011;14925;51.026;13.752;2022-10-16T14:18:41;1.60;;;0.77;;
27489;SDS011;14925;51.026;13.752;2022-10-16T14:21:21;2.00;;;0.70;;
27489;SDS011;14925;51.026;13.752;2022-10-16T14:23:47;0.93;;;0.85;;
27489;SDS011;14925;51.026;13.752;2022-10-16T14:26:13;1.40;;;0.88;;
27489;SDS011;14925;51.026;13.752;2022-10-16T14:28:40;2.35;;;1.00;;
27489;SDS011;14925;51.026;13.752;2022-10-16T14:34:02;2.10;;;1.10;;
27489;SDS011;14925;51.026;13.752;2022-10-16T14:36:28;4.78;;;0.90;;
27489;SDS011;14925;51.026;13.752;2022-10-16T14:41:22;0.70;;;0.70;;
27489;SDS011;14925;51.026;13.752;2022-10-16T14:43:50;2.63;;;0.90;;
27489;SDS011;14925;51.026;13.752;2022-10-16T14:46:34;1.33;;;0.88;;
27489;SDS011;14925;51.026;13.752;2022-10-16T14:51:37;1.13;;;0.80;;
27489;SDS011;14925;51.026;13.752;2022-10-16T14:54:03;1.98;;;0.90;;
27489;SDS011;14925;51.026;13.752;2022-10-16T14:56:30;1.45;;;0.80;;
27489;SDS011;14925;51.026;13.752;2022-10-16T14:58:58;2.00;;;0.90;;
27489;SDS011;14925;51.026;13.752;2022-10-16T15:01:23;1.88;;;0.95;;
27489;SDS011;14925;51.026;13.752;2022-10-16T15:03:48;1.52;;;0.80;;
27489;SDS011;14925;51.026;13.752;2022-10-16T15:06:15;2.88;;;0.90;;
27489;SDS011;14925;51.026;13.752;2022-10-16T15:08:41;2.33;;;1.10;;
27489;SDS011;14925;51.026;13.752;2022-10-16T15:11:13;1.58;;;1.10;;
27489;SDS011;14925;51.026;13.752;2022-10-16T15:13:41;2.80;;;0.98;;
27489;SDS011;14925;51.026;13.752;2022-10-16T15:16:08;2.97;;;1.00;;
27489;SDS011;14925;51.026;13.752;2022-10-16T15:18:36;3.28;;;1.27;;
27489;SDS011;14925;51.026;13.752;2022-10-16T15:21:02;1.70;;;0.95;;
27489;SDS011;14925;51.026;13.752;2022-10-16T15:23:27;2.30;;;1.10;;
27489;SDS011;14925;51.026;13.752;2022-10-16T15:25:54;2.60;;;1.20;;
27489;SDS011;14925;51.026;13.752;2022-10-16T15:28:20;6.25;;;1.38;;
27489;SDS011;14925;51.026;13.752;2022-10-16T15:30:50;1.92;;;1.00;;
27489;SDS011;14925;51.026;13.752;2022-10-16T15:33:27;3.05;;;1.20;;
27489;SDS011;14925;51.026;13.752;2022-10-16T15:35:57;4.10;;;1.70;;
27489;SDS011;14925;51.026;13.752;2022-10-16T15:38:27;2.60;;;1.80;;
27489;SDS011;14925;51.026;13.752;2022-10-16T15:40:52;4.13;;;1.83;;
27489;SDS011;14925;51.026;13.752;2022-10-16T15:43:18;3.88;;;1.50;;
27489;SDS011;14925;51.026;13.752;2022-10-16T15:45:43;3.47;;;1.80;;
27489;SDS011;14925;51.026;13.752;2022-10-16T15:48:10;3.15;;;1.95;;
27489;SDS011;14925;51.026;13.752;2022-10-16T15:50:37;3.85;;;1.95;;
27489;SDS011;14925;51.026;13.752;2022-10-16T15:53:03;4.53;;;2.58;;
27489;SDS011;14925;51.026;13.752;2022-10-16T15:55:29;4.45;;;2.90;;
27489;SDS011;14925;51.026;13.752;2022-10-16T15:57:54;9.75;;;5.40;;
27489;SDS011;14925;51.026;13.752;2022-10-16T16:00:20;7.50;;;5.95;;
27489;SDS011;14925;51.026;13.752;2022-10-16T16:02:53;7.63;;;5.95;;
27489;SDS011;14925;51.026;13.752;2022-10-16T16:05:19;14.98;;;9.93;;
27489;SDS011;14925;51.026;13.752;2022-10-16T16:07:45;17.13;;;11.25;;
27489;SDS011;14925;51.026;13.752;2022-10-16T16:10:11;15.55;;;9.98;;
27489;SDS011;14925;51.026;13.752;2022-10-16T16:12:37;18.02;;;11.38;;